Data for 09/08/2014

Time Sea-Level Adjusted Pressure Absolute Pressure Temperature Relative Humidity Dew Point Precipitation   
(mb) (inHg) (mb) (inHg) (C) (F) (%) (C) (F) (mm) (in)
00:05 1018 30.06 847 25.01 10.5 50.9 43 -1.4 29.5 0 0
00:10 1018 30.06 847 25.01 11.3 52.4 41 -1.4 29.5 0 0
00:15 1018 30.06 847 25.01 11.4 52.4 44 -0.3 31.4 0 0
00:20 1017 30.03 847 25.01 11.4 52.6 39 -1.8 28.7 0 0
00:25 1017 30.03 847 25.01 11.8 53.3 41 -1.1 30.1 0 0
00:30 1017 30.03 847 25.01 11.2 52.2 46 0.2 32.3 0 0
00:35 1017 30.03 847 25.01 10 50 47 -0.6 30.9 0 0
00:40 1017 30.03 847 25.01 9.7 49.4 48 -0.8 30.6 0 0
00:45 1017 30.03 847 25.01 10.2 50.4 45 -1.2 29.8 0 0
00:50 1017 30.03 847 25.01 10.2 50.3 44 -1.4 29.5 0 0
00:55 1017 30.03 847 25.01 10.7 51.3 38 -2.8 26.9 0 0
01:00 1017 30.03 847 25.01 11.4 52.4 40 -1.7 29 0 0
01:05 1017 30.03 847 25.01 10.9 51.6 41 -1.6 29 0 0
01:10 1017 30.03 846 24.98 10.4 50.6 44 -1.2 29.8 0 0
01:15 1017 30.03 846 24.98 10 50 46 -1.1 30 0 0
01:20 1017 30.03 847 25.01 9.3 48.8 45 -1.9 28.5 0 0
01:25 1017 30.03 847 25.01 10.7 51.2 37 -3.3 26.1 0 0
01:30 1017 30.03 847 25.01 10.5 50.8 56 2 35.7 0 0
01:35 1017 30.03 847 25.01 7.6 45.7 59 0.1 32.2 0 0
01:40 1017 30.03 846 24.98 6.9 44.5 62 0.1 32.2 0 0
01:45 1017 30.03 846 24.98 7.5 45.6 50 -2.1 28.3 0 0
01:50 1017 30.03 846 24.98 8.8 47.8 52 -0.4 31.3 0 0
01:55 1017 30.03 846 24.98 8.5 47.2 52 -0.9 30.3 0 0
02:00 1017 30.03 846 24.98 8.3 46.9 54 -0.5 31.1 0 0
02:05 1017 30.03 846 24.98 8.9 48 48 -1.5 29.2 0 0
02:10 1017 30.03 846 24.98 9.9 49.8 44 -1.6 29.1 0 0
02:15 1017 30.03 846 24.98 10.6 51 43 -1.4 29.5 0 0
02:20 1017 30.03 846 24.98 11.2 52.2 38 -2.6 27.3 0 0
02:25 1017 30.03 846 24.98 11.7 53 45 0.1 32.1 0 0
02:30 1017 30.03 846 24.98 9.5 49.2 55 1 33.7 0 0
02:35 1017 30.03 846 24.98 7.7 45.8 59 0.1 32.2 0 0
02:40 1017 30.03 846 24.98 7.6 45.7 53 -1.3 29.7 0 0
02:45 1017 30.03 846 24.98 8.2 46.7 53 -0.7 30.7 0 0
02:50 1017 30.03 846 24.98 7.9 46.1 55 -0.7 30.8 0 0
02:55 1017 30.03 846 24.98 8 46.4 51 -1.6 29.1 0 0
03:00 1017 30.03 846 24.98 8.2 46.7 56 0 32 0 0
03:05 1017 30.03 846 24.98 7.9 46.2 53 -1 30.3 0 0
03:10 1017 30.03 846 24.98 8 46.5 57 0 32.1 0 0
03:15 1017 30.03 846 24.98 7.4 45.3 59 -0.1 31.8 0 0
03:20 1017 30.03 846 24.98 6.7 44.1 59 -0.7 30.7 0 0
03:25 1017 30.03 846 24.98 7 44.7 57 -0.9 30.3 0 0
03:30 1017 30.03 846 24.98 7.1 44.7 59 -0.3 31.5 0 0
03:35 1017 30.03 846 24.98 7 44.5 57 -1 30.2 0 0
03:40 1017 30.03 846 24.98 7.6 45.6 53 -1.4 29.5 0 0
03:45 1017 30.03 846 24.98 8.3 46.9 55 -0.3 31.5 0 0
03:50 1017 30.03 846 24.98 7.1 44.9 60 -0.1 31.8 0 0
03:55 1017 30.03 846 24.98 6.7 44.1 59 -0.7 30.7 0 0
04:00 1017 30.03 846 24.98 7.2 44.9 56 -1.1 30 0 0
04:05 1017 30.03 846 24.98 7.6 45.6 60 0.3 32.6 0 0
04:10 1017 30.03 846 24.98 6.6 43.9 62 -0.1 31.9 0 0
04:15 1017 30.03 846 24.98 6.6 43.8 61 -0.5 31.1 0 0
04:20 1017 30.03 846 24.98 6.3 43.4 62 -0.4 31.3 0 0
04:25 1017 30.03 846 24.98 6.5 43.6 58 -1.2 29.8 0 0
04:30 1017 30.03 846 24.98 6.9 44.5 59 -0.4 31.3 0 0
04:35 1017 30.03 846 24.98 6.7 44.1 62 -0 31.9 0 0
04:40 1017 30.03 846 24.98 6.2 43.2 65 0.1 32.1 0 0
04:45 1017 30.03 846 24.98 5.8 42.4 66 -0 32 0 0
04:50 1017 30.03 846 24.98 5.7 42.3 67 0 32 0 0
04:55 1017 30.03 846 24.98 5.6 42 67 -0.1 31.8 0 0
05:00 1017 30.03 846 24.98 5.4 41.8 70 0.4 32.6 0 0
05:05 1017 30.03 846 24.98 4.6 40.3 75 0.6 33 0 0
05:10 1017 30.03 846 24.98 4.6 40.3 72 -0.1 31.8 0 0
05:15 1017 30.03 846 24.98 4.8 40.6 71 0 32 0 0
05:20 1017 30.03 846 24.98 4.6 40.2 75 0.6 33.1 0 0
05:25 1017 30.03 846 24.98 4.5 40 72 -0.2 31.7 0 0
05:30 1017 30.03 846 24.98 4.3 39.8 76 0.6 33 0 0
05:35 1017 30.03 846 24.98 4.2 39.5 74 -0.1 31.8 0 0
05:40 1017 30.03 846 24.98 4.9 40.8 70 -0.1 31.8 0 0
05:45 1017 30.03 846 24.98 5.3 41.5 69 -0 32 0 0
05:50 1017 30.03 846 24.98 5.7 42.2 67 -0 31.9 0 0
05:55 1017 30.03 846 24.98 5.7 42.2 68 0.2 32.4 0 0
06:00 1017 30.03 846 24.98 5.7 42.2 67 0 32.1 0 0
06:05 1017 30.03 846 24.98 5.6 42.1 67 -0 32 0 0
06:10 1017 30.03 846 24.98 5.6 42 67 0 32.1 0 0
06:15 1017 30.03 846 24.98 5.5 42 66 -0.4 31.4 0 0
06:20 1017 30.03 846 24.98 5.6 42.1 67 -0.1 31.8 0 0
06:25 1017 30.03 846 24.98 6.2 43.2 61 -0.6 30.8 0 0
06:30 1017 30.03 846 24.98 6.5 43.8 60 -0.7 30.7 0 0
06:35 1017 30.03 846 24.98 7 44.5 62 0.1 32.2 0 0
06:40 1017 30.03 846 24.98 6 42.9 66 0.1 32.2 0 0
06:45 1017 30.03 846 24.98 5.5 41.9 68 0 32.1 0 0
06:50 1017 30.03 846 24.98 5.4 41.8 68 0.1 32.1 0 0
06:55 1017 30.03 846 24.98 5.3 41.5 69 -0 32 0 0
07:00 1017 30.03 846 24.98 5.6 42 69 0.3 32.6 0 0
07:05 1017 30.03 846 24.98 5.1 41.2 71 0.4 32.7 0 0
07:10 1017 30.03 846 24.98 4.7 40.5 72 0.2 32.3 0 0
07:15 1017 30.03 846 24.98 4.8 40.6 75 0.7 33.3 0 0
07:20 1017 30.03 846 24.98 4.6 40.2 73 0.2 32.3 0 0
07:25 1017 30.03 846 24.98 5 40.9 74 0.7 33.2 0 0
07:30 1017 30.03 846 24.98 5.2 41.4 73 0.7 33.3 0 0
07:35 1017 30.03 846 24.98 5.8 42.4 71 0.9 33.5 0 0
07:40 1017 30.03 846 24.98 6.2 43.1 72 1.5 34.7 0 0
07:45 1017 30.03 846 24.98 6.5 43.7 69 1.2 34.2 0 0
07:50 1017 30.03 846 24.98 7.3 45.1 67 1.5 34.7 0 0
07:55 1017 30.03 846 24.98 8 46.3 63 1.4 34.6 0 0
08:00 1017 30.03 846 24.98 8.8 47.8 60 1.4 34.5 0 0
08:05 1017 30.03 846 24.98 9.5 49 61 2.3 36.2 0 0
08:10 1017 30.03 846 24.98 10 50.1 60 2.6 36.8 0 0
08:15 1017 30.03 846 24.98 10.5 50.9 58 2.7 36.8 0 0
08:20 1017 30.03 846 24.98 10.9 51.5 54 1.9 35.4 0 0
08:25 1017 30.03 846 24.98 11.2 52.1 57 3 37.4 0 0
08:30 1017 30.03 846 24.98 11.7 53.1 53 2.5 36.5 0 0
08:35 1017 30.03 846 24.98 12.3 54.1 50 2.2 36 0 0
08:40 1017 30.03 846 24.98 12.7 54.9 54 3.8 38.8 0 0
08:45 1017 30.03 846 24.98 13.2 55.8 50 3.1 37.5 0 0
08:50 1017 30.03 846 24.98 13.6 56.5 49 3.2 37.8 0 0
08:55 1017 30.03 846 24.98 14.1 57.4 47 3.2 37.7 0 0
09:00 1017 30.03 846 24.98 14.6 58.2 44 2.7 36.8 0 0
09:05 1017 30.03 846 24.98 15 59 42 2.4 36.4 0 0
09:10 1017 30.03 846 24.98 15.5 60 40 2.2 36 0 0
09:15 1017 30.03 846 24.98 16 60.8 45 4 39.3 0 0
09:20 1017 30.03 846 24.98 16.4 61.5 43 3.7 38.7 0 0
09:25 1017 30.03 846 24.98 16.6 61.9 36 1.5 34.8 0 0
09:30 1017 30.03 846 24.98 16.8 62.2 40 3.4 38 0 0
09:35 1017 30.03 846 24.98 17.1 62.8 41 3.9 39 0 0
09:40 1017 30.03 846 24.98 17.4 63.2 40 3.8 38.9 0 0
09:45 1017 30.03 846 24.98 17.7 63.8 36 2.5 36.6 0 0
09:50 1017 30.03 846 24.98 18.1 64.6 38 3.5 38.3 0 0
09:55 1017 30.03 846 24.98 18.3 65 35 2.7 36.8 0 0
10:00 1017 30.03 846 24.98 18.7 65.7 30 0.9 33.7 0 0
10:05 1017 30.03 846 24.98 19.1 66.4 28 0.1 32.2 0 0
10:10 1017 30.03 846 24.98 19.5 67 36 4.2 39.6 0 0
10:15 1017 30.03 846 24.98 20 67.9 28 1 33.8 0 0
10:20 1017 30.03 846 24.98 20.2 68.4 27 0.7 33.2 0 0
10:25 1017 30.03 846 24.98 20.8 69.4 30 2.6 36.7 0 0
10:30 1017 30.03 846 24.98 20.7 69.3 31 3.3 37.9 0 0
10:35 1016 30 846 24.98 20.7 69.3 31 3.3 38 0 0
10:40 1016 30 846 24.98 20.9 69.6 34 4.8 40.6 0 0
10:45 1016 30 846 24.98 21.2 70.2 28 2.3 36.2 0 0
10:50 1016 30 846 24.98 21.5 70.8 29 2.9 37.1 0 0
10:55 1016 30 846 24.98 21.3 70.3 28 2.1 35.8 0 0
11:00 1016 30 846 24.98 21.5 70.7 30 3.3 38 0 0
11:05 1016 30 846 24.98 21.4 70.4 29 2.8 37 0 0
11:10 1016 30 846 24.98 21 69.8 32 3.9 39.1 0 0
11:15 1016 30 845 24.95 21 69.8 30 2.9 37.2 0 0
11:20 1016 30 845 24.95 21.1 69.9 28 2 35.5 0 0
11:25 1016 30 845 24.95 21.1 70.1 25 0.5 32.9 0 0
11:30 1016 30 845 24.95 21.4 70.4 31 3.9 39 0 0
11:35 1016 30 845 24.95 21.6 70.9 28 2.5 36.5 0 0
11:40 1016 30 845 24.95 21.8 71.2 28 2.9 37.2 0 0
11:45 1016 30 845 24.95 21.7 71.1 30 3.6 38.4 0 0
11:50 1016 30 845 24.95 21.7 71.1 29 3.1 37.5 0 0
11:55 1016 30 845 24.95 22.1 71.8 24 0.8 33.5 0 0
12:00 1016 30 845 24.95 22.5 72.5 25 1.6 34.9 0 0
12:05 1016 30 845 24.95 22.6 72.6 33 5.6 42.1 0 0
12:10 1016 30 845 24.95 22.7 72.9 29 4.1 39.3 0 0
12:15 1016 30 845 24.95 23.1 73.5 24 1.3 34.4 0 0
12:20 1016 30 845 24.95 23.1 73.6 35 7 44.6 0 0
12:25 1016 30 845 24.95 23.3 73.9 30 5 41 0 0
12:30 1016 30 845 24.95 23.5 74.3 30 5 41 0 0
12:35 1016 30 845 24.95 23.6 74.5 33 6.7 44 0 0
12:40 1016 30 845 24.95 23.9 75.1 28 4.6 40.2 0 0
12:45 1015 29.97 845 24.95 24.2 75.5 22 1.6 34.9 0 0
12:50 1015 29.97 845 24.95 24.3 75.7 19 -0.9 30.4 0 0
12:55 1015 29.97 845 24.95 24.3 75.7 21 0.9 33.7 0 0
13:00 1015 29.97 845 24.95 24.2 75.6 19 -1 30.3 0 0
13:05 1015 29.97 845 24.95 24.3 75.8 18 -1.4 29.4 0 0
13:10 1015 29.97 845 24.95 24.4 76 19 -0.3 31.4 0 0
13:15 1015 29.97 845 24.95 24.5 76 20 0.1 32.2 0 0
13:20 1015 29.97 844 24.92 24.7 76.5 19 0.1 32.2 0 0
13:25 1015 29.97 844 24.92 24.7 76.4 19 -0.2 31.6 0 0
13:30 1015 29.97 844 24.92 24.7 76.4 19 -0.6 30.9 0 0
13:35 1015 29.97 844 24.92 24.6 76.2 25 3.5 38.3 0 0
13:40 1015 29.97 844 24.92 24.7 76.5 23 2.3 36.2 0 0
13:45 1015 29.97 844 24.92 24.9 76.7 22 2.2 36 0 0
13:50 1015 29.97 844 24.92 24.8 76.7 24 3.2 37.8 0 0
13:55 1015 29.97 844 24.92 24.9 76.9 24 3 37.5 0 0
14:00 1015 29.97 844 24.92 24.8 76.6 23 2.4 36.4 0 0
14:05 1015 29.97 844 24.92 24.7 76.5 23 2.3 36.1 0 0
14:10 1015 29.97 844 24.92 24.7 76.4 25 3.6 38.5 0 0
14:15 1015 29.97 844 24.92 24.8 76.6 24 2.9 37.3 0 0
14:20 1015 29.97 844 24.92 24.8 76.7 20 0.8 33.4 0 0
14:25 1015 29.97 844 24.92 24.7 76.5 20 0.5 32.9 0 0
14:30 1015 29.97 844 24.92 24.6 76.3 21 1.3 34.3 0 0
14:35 1015 29.97 844 24.92 24.1 75.5 23 2 35.6 0 0
14:40 1015 29.97 844 24.92 24.3 75.7 23 1.8 35.3 0 0
14:45 1015 29.97 844 24.92 23.7 74.7 21 0.4 32.8 0 0
14:50 1015 29.97 844 24.92 24.1 75.4 24 2.4 36.3 0 0
14:55 1015 29.97 844 24.92 24.8 76.6 23 2.4 36.3 0 0
15:00 1015 29.97 844 24.92 25.3 77.5 27 5.4 41.8 0 0
15:05 1015 29.97 844 24.92 25.7 78.2 19 0.5 32.8 0 0
15:10 1014 29.94 844 24.92 25.5 78 25 4.2 39.6 0 0
15:15 1014 29.94 844 24.92 25.3 77.6 23 2.9 37.2 0 0
15:20 1014 29.94 843 24.89 25 76.9 27 5.1 41.2 0 0
15:25 1014 29.94 843 24.89 24.7 76.4 24 2.8 37.1 0 0
15:30 1014 29.94 843 24.89 24 75.3 18 -1.3 29.7 0 0
15:35 1014 29.94 843 24.89 25.1 77.2 16 -2.3 27.9 0 0
15:40 1014 29.94 843 24.89 25 77 22 2.4 36.3 0 0
15:45 1014 29.94 843 24.89 24.1 75.4 18 -1.5 29.4 0 0
15:50 1014 29.94 843 24.89 24.9 76.9 18 -1 30.2 0 0
15:55 1014 29.94 843 24.89 25.4 77.8 18 -0.7 30.8 0 0
16:00 1014 29.94 843 24.89 25.8 78.4 14 -3.5 25.6 0 0
16:05 1014 29.94 843 24.89 25.8 78.5 18 0.2 32.3 0 0
16:10 1014 29.94 843 24.89 26 78.8 20 1.2 34.2 0 0
16:15 1014 29.94 843 24.89 25.6 78 20 1.5 34.6 0 0
16:20 1014 29.94 843 24.89 25.5 77.9 18 -0.2 31.6 0 0
16:25 1014 29.94 843 24.89 25.9 78.6 17 -0.6 30.9 0 0
16:30 1014 29.94 843 24.89 25.2 77.4 18 -0.4 31.3 0 0
16:35 1014 29.94 843 24.89 25.3 77.6 17 -1.5 29.2 0 0
16:40 1014 29.94 843 24.89 25.8 78.4 21 2.1 35.7 0 0
16:45 1014 29.94 843 24.89 25.6 78.1 16 -1.8 28.8 0 0
16:50 1014 29.94 843 24.89 25.6 78.1 16 -1.4 29.4 0 0
16:55 1014 29.94 843 24.89 25.5 77.8 16 -1.9 28.7 0 0
17:00 1014 29.94 843 24.89 25.3 77.5 21 1.4 34.5 0 0
17:05 1014 29.94 843 24.89 25.2 77.3 17 -1.5 29.2 0 0
17:10 1013 29.91 843 24.89 25 77.1 17 -1.5 29.4 0 0
17:15 1013 29.91 843 24.89 24.9 76.9 18 -1.1 30.1 0 0
17:20 1013 29.91 843 24.89 24.9 76.9 16 -2.7 27.2 0 0
17:25 1013 29.91 843 24.89 25 77 16 -2.6 27.3 0 0
17:30 1013 29.91 843 24.89 24.7 76.4 16 -2.7 27.2 0 0
17:35 1013 29.91 843 24.89 24 75.3 17 -2.3 27.8 0 0
17:40 1013 29.91 843 24.89 24.2 75.6 18 -1.4 29.5 0 0
17:45 1013 29.91 843 24.89 24.4 75.9 18 -1 30.2 0 0
17:50 1013 29.91 843 24.89 24.4 75.9 15 -3.6 25.6 0 0
17:55 1013 29.91 843 24.89 24.1 75.3 19 -0.5 31 0 0
18:00 1013 29.91 843 24.89 23.2 73.8 18 -2.1 28.3 0 0
18:05 1013 29.91 843 24.89 22.9 73.1 20 -1.3 29.6 0 0
18:10 1013 29.91 843 24.89 22.5 72.4 18 -2.6 27.3 0 0
18:15 1013 29.91 843 24.89 22 71.6 24 0.7 33.3 0 0
18:20 1013 29.91 843 24.89 21.4 70.4 24 0.1 32.1 0 0
18:25 1013 29.91 843 24.89 21.2 70.1 26 1.1 34 0 0
18:30 1013 29.91 843 24.89 20.8 69.4 29 2.2 36 0 0
18:35 1013 29.91 843 24.89 20.6 69.1 29 2.2 35.9 0 0
18:40 1013 29.91 843 24.89 20.6 69.1 29 2.1 35.9 0 0
18:45 1013 29.91 843 24.89 20.6 69 29 2 35.6 0 0
18:50 1013 29.91 843 24.89 20.2 68.4 32 3 37.4 0 0
18:55 1013 29.91 843 24.89 19.7 67.4 30 1.6 35 0 0
19:00 1013 29.91 843 24.89 19.8 67.6 29 1.2 34.2 0 0
19:05 1013 29.91 843 24.89 19.6 67.4 38 5.2 41.3 0 0
19:10 1014 29.94 843 24.89 18.4 65 46 6.5 43.7 0 0
19:15 1014 29.94 843 24.89 16.9 62.4 54 7.5 45.6 0 0
19:20 1014 29.94 843 24.89 15.9 60.7 55 6.9 44.4 0 0
19:25 1014 29.94 843 24.89 15.7 60.2 53 6.3 43.4 0 0
19:30 1014 29.94 843 24.89 15.7 60.2 54 6.5 43.8 0 0
19:35 1014 29.94 843 24.89 15.4 59.7 46 4 39.2 0 0
19:40 1014 29.94 843 24.89 16.6 61.8 37 2 35.6 0 0
19:45 1014 29.94 843 24.89 17.1 62.9 33 0.9 33.5 0 0
19:50 1014 29.94 843 24.89 17.8 64 31 0.5 32.9 0 0
19:55 1014 29.94 843 24.89 18.3 64.9 33 1.7 35 0 0
20:00 1014 29.94 843 24.89 18 64.4 30 0.5 32.8 0 0
20:05 1014 29.94 843 24.89 17.3 63.1 38 3 37.3 0 0
20:10 1014 29.94 843 24.89 16.7 62.1 43 4.2 39.6 0 0
20:15 1014 29.94 843 24.89 16.2 61.2 42 3.5 38.3 0 0
20:20 1014 29.94 843 24.89 16 60.7 42 3.2 37.7 0 0
20:25 1014 29.94 843 24.89 16.9 62.4 38 2.8 37 0 0
20:30 1014 29.94 843 24.89 16.4 61.6 44 4.3 39.7 0 0
20:35 1014 29.94 843 24.89 15.4 59.8 48 4.6 40.2 0 0
20:40 1014 29.94 843 24.89 15.1 59.2 43 2.6 36.8 0 0
20:45 1014 29.94 843 24.89 15.3 59.5 41 2.3 36.2 0 0
20:50 1014 29.94 843 24.89 15.5 59.8 42 2.9 37.2 0 0
20:55 1014 29.94 843 24.89 15.2 59.4 47 4 39.2 0 0
21:00 1014 29.94 843 24.89 14.7 58.4 46 3.2 37.8 0 0
21:05 1014 29.94 843 24.89 14.7 58.4 48 3.8 38.8 0 0
21:10 1015 29.97 844 24.92 14.3 57.7 50 4.2 39.5 0 0
21:15 1015 29.97 844 24.92 14 57.1 50 3.7 38.7 0 0
21:20 1015 29.97 844 24.92 14.3 57.7 45 2.6 36.7 0 0
21:25 1014 29.94 844 24.92 17.6 63.6 25 -2.4 27.6 0 0
21:30 1015 29.97 844 24.92 18.8 65.8 33 2.2 35.9 0 0
21:35 1015 29.97 844 24.92 17.3 63.2 31 0.4 32.6 0 0
21:40 1015 29.97 844 24.92 17.1 62.9 30 -0.4 31.2 0 0
21:45 1015 29.97 844 24.92 16.9 62.3 33 0.6 33 0 0
21:50 1015 29.97 844 24.92 17 62.6 36 1.9 35.3 0 0
21:55 1015 29.97 844 24.92 16.2 61.1 38 2 35.5 0 0
22:00 1015 29.97 844 24.92 16 60.9 28 -2.6 27.4 0 0
22:05 1015 29.97 844 24.92 17.2 63 34 1.5 34.8 0 0
22:10 1015 29.97 844 24.92 16.5 61.6 38 2.3 36.2 0 0
22:15 1015 29.97 844 24.92 15.2 59.4 45 3.3 38 0 0
22:20 1015 29.97 844 24.92 15 59 36 0.2 32.4 0 0
22:25 1015 29.97 844 24.92 16 60.7 34 0.2 32.4 0 0
22:30 1015 29.97 844 24.92 15.4 59.7 44 3.3 38 0 0
22:35 1015 29.97 844 24.92 14.3 57.8 47 3.2 37.7 0 0
22:40 1015 29.97 844 24.92 14.2 57.6 43 1.8 35.3 0 0
22:45 1015 29.97 844 24.92 15 59 38 0.9 33.6 0 0
22:50 1015 29.97 844 24.92 15.6 60.1 37 1.1 33.9 0 0
22:55 1015 29.97 845 24.95 15.2 59.4 40 1.9 35.3 0 0
23:00 1015 29.97 844 24.92 14.7 58.5 43 2.4 36.3 0 0
23:05 1015 29.97 844 24.92 14 57.3 46 2.6 36.6 0 0
23:10 1015 29.97 844 24.92 13.8 56.8 43 1.6 34.9 0 0
23:15 1015 29.97 844 24.92 13.9 57 43 1.5 34.7 0 0
23:20 1015 29.97 845 24.95 13.8 56.8 41 0.7 33.3 0 0
23:25 1015 29.97 845 24.95 13.4 56 46 2.1 35.8 0 0
23:30 1016 30 845 24.95 12.2 53.9 51 2.4 36.4 0 0
23:35 1016 30 845 24.95 12.2 53.9 37 -1.9 28.6 0 0
23:40 1016 30 845 24.95 13.5 56.3 35 -1.5 29.3 0 0
23:45 1016 30 845 24.95 14.3 57.7 30 -3.2 26.3 0 0
23:50 1016 30 845 24.95 14.8 58.6 32 -1.6 29.1 0 0
23:55 1016 30 845 24.95 14.4 57.9 34 -1.1 29.9 0 0
24:00 1016 30 845 24.95 13.8 56.9 40 0.6 33.1 0 0